Date,TemperatureHighF,TemperatureAvgF,TemperatureLowF,DewpointHighF,DewpointAvgF,DewpointLowF,HumidityHigh,HumidityAvg,HumidityLow,PressureMaxIn,PressureMinIn,WindSpeedMaxMPH,WindSpeedAvgMPH,GustSpeedMaxMPH,PrecipitationSumIn
2013-1-1,30,27,22,27,24,20,92,90,87,27.21,27.13,12,5,24,0.00
2013-1-2,32,21,15,21,14,10,88,74,53,27.36,27.19,11,4,16,0.00
2013-1-3,37,22,9,23,13,4,85,71,48,27.37,27.29,14,5,26,0.00
2013-1-4,27,24,21,18,17,15,82,76,67,27.39,27.32,23,10,31,0.00
2013-1-5,44,29,22,22,19,16,81,68,42,27.53,27.34,13,5,27,0.00
2013-1-6,35,31,29,29,24,20,92,75,64,27.38,27.22,12,6,21,0.01
2013-1-7,32,25,16,26,21,12,92,85,62,27.61,27.38,12,3,22,0.00
2013-1-8,52,31,14,26,19,10,85,66,35,27.56,27.46,14,2,18,0.00
2013-1-9,47,36,22,41,28,-64,96,81,1,27.65,27.46,16,6,27,0.02
2013-1-10,59,39,28,30,25,19,90,60,28,27.77,27.56,10,2,23,0.00
2013-1-11,52,42,36,51,36,25,98,81,60,27.56,27.28,17,6,26,0.25
2013-1-12,61,55,50,54,51,47,98,88,70,27.39,27.29,9,4,20,0.00
2013-1-13,63,57,48,52,48,-3,95,73,7,27.31,27.20,12,5,21,0.08
2013-1-14,54,37,30,53,35,-27,97,93,5,27.52,27.22,10,4,28,0.13
2013-1-15,34,31,29,31,29,28,94,92,85,27.50,27.27,8,2,15,0.38
2013-1-16,35,32,29,34,31,27,97,95,92,27.24,27.08,10,4,21,0.11
2013-1-17,31,29,26,29,25,22,94,85,80,27.34,27.23,14,4,22,0.00
2013-1-18,36,25,16,21,9,-1,82,53,27,27.60,27.32,20,8,29,0.00
2013-1-19,53,41,31,16,10,2,34,28,21,27.48,27.13,18,10,35,0.00
2013-1-20,41,34,21,26,14,-8,63,45,13,27.26,27.06,19,10,37,0.00
2013-1-21,30,20,6,18,8,-34,83,61,11,27.24,27.04,15,7,27,0.00
2013-1-22,11,5,0,-1,-6,-8,74,60,45,27.33,27.14,16,8,27,0.00
2013-1-23,14,7,0,6,-3,-7,79,64,45,27.36,27.15,14,6,22,0.01
2013-1-24,18,10,2,7,1,-7,79,68,45,27.60,27.15,17,4,22,0.03
2013-1-25,19,12,1,16,4,-7,88,72,57,27.56,27.15,15,3,19,0.01
2013-1-26,25,20,16,18,14,9,87,80,69,27.55,27.21,15,6,18,0.01
2013-1-27,41,25,11,17,13,7,81,61,33,27.64,27.51,6,1,12,0.00
2013-1-28,48,41,28,48,37,-33,98,90,5,27.50,27.29,18,8,32,0.41
2013-1-29,66,54,48,55,49,45,99,83,55,27.35,27.15,12,6,25,0.02
2013-1-30,68,55,42,54,50,41,98,84,57,27.14,27.01,27,10,41,0.59
2013-1-31,40,22,17,40,18,10,97,83,73,27.03,27.01,21,11,36,0.09
2013-2-1,18,10,3,15,4,-3,86,75,64,27.42,27.01,19,8,27,0.02
2013-2-2,23,15,2,18,8,-3,88,75,49,27.40,27.11,13,6,20,0.01
2013-2-3,28,20,13,20,16,8,89,82,67,27.15,27.01,15,6,27,0.06
2013-2-4,30,22,13,29,16,7,95,78,52,27.19,27.03,16,8,25,0.08
2013-2-5,34,30,28,32,28,26,96,93,87,27.12,27.02,16,5,25,0.10
2013-2-6,28,25,14,27,22,0,94,88,84,27.48,27.13,17,4,22,0.01
2013-2-7,36,26,13,32,22,9,90,84,76,27.49,27.25,19,6,23,0.00
2013-2-8,41,28,20,36,26,16,96,89,81,27.27,27.03,20,9,34,0.08
2013-2-9,36,21,9,29,16,4,87,79,62,27.52,27.27,15,5,26,0.00
2013-2-10,50,30,7,40,15,-56,90,57,3,27.51,27.24,15,4,25,0.02
2013-2-11,58,44,33,47,33,18,98,70,27,27.23,27.01,20,8,37,0.05
2013-2-12,49,36,28,24,21,18,70,55,32,27.23,27.08,18,8,29,0.00
2013-2-13,40,31,24,29,23,17,93,73,41,27.14,27.01,15,3,21,0.10
2013-2-14,39,32,24,27,23,-29,91,71,5,27.18,27.06,12,5,20,0.00
2013-2-15,42,34,27,31,27,23,93,79,49,27.23,27.15,13,5,20,0.00
2013-2-16,27,22,14,23,14,7,87,73,54,27.19,27.05,10,4,14,0.02
2013-2-17,19,14,9,11,6,0,82,73,59,27.36,27.05,15,7,26,0.03
2013-2-18,44,26,4,24,10,-18,75,53,8,27.44,27.20,12,4,18,0.00
2013-2-19,42,33,19,36,26,15,96,80,45,27.20,27.01,27,9,34,0.06
2013-2-20,22,16,12,14,9,2,82,72,63,27.32,27.10,22,11,39,0.00
2013-2-21,28,17,13,16,10,6,82,72,58,27.46,27.28,17,6,23,0.00
2013-2-22,27,24,19,24,19,-10,92,81,24,27.42,27.24,25,8,30,0.00
2013-2-23,54,37,26,45,32,24,94,83,51,27.24,27.06,9,2,14,0.00
2013-2-24,34,26,19,31,21,14,90,79,65,27.30,27.06,18,6,23,0.01
2013-2-25,44,30,20,23,17,-34,85,60,4,27.37,27.28,13,4,23,0.00
2013-2-26,32,29,28,31,23,15,96,78,56,27.29,27.02,25,11,35,0.26
2013-2-27,38,33,28,34,32,26,96,94,88,0.00,40.00,17,6,23,0.12
2013-2-28,32,28,27,27,24,-26,94,86,7,0.00,40.00,15,7,21,0.07
2013-3-1,30,25,21,25,22,17,92,86,77,27.12,27.01,9,5,16,0.02
2013-3-2,28,22,18,18,16,14,86,79,64,27.10,27.04,14,5,19,0.00
2013-3-3,28,20,16,17,14,12,86,77,59,27.14,27.05,13,6,18,0.01
2013-3-4,36,23,15,17,12,9,83,64,40,27.24,27.14,13,6,22,0.00
2013-3-5,52,33,15,25,16,9,89,53,19,27.25,27.01,24,4,34,0.00
2013-3-6,38,31,26,34,27,23,90,86,80,27.28,27.01,14,4,27,0.31
2013-3-7,36,30,27,29,26,24,90,85,72,27.42,27.28,15,5,19,0.02
2013-3-8,31,26,20,23,21,17,89,80,68,27.57,27.41,11,5,21,0.00
2013-3-9,55,35,10,33,17,5,89,53,20,27.55,27.45,8,2,13,0.00
2013-3-10,63,48,36,28,24,16,53,38,25,27.45,27.33,18,5,24,0.00
2013-3-11,51,48,45,46,32,25,94,57,36,27.33,27.07,20,10,30,0.01
2013-3-12,48,36,30,46,33,0,96,90,75,27.22,27.04,16,7,24,0.42
2013-3-13,35,28,21,26,22,14,91,78,56,27.25,27.13,24,7,28,0.06
2013-3-14,35,25,18,17,14,12,85,66,41,27.34,27.26,19,8,27,0.00
2013-3-15,47,36,24,30,22,12,66,57,47,27.29,27.06,21,8,27,0.00
2013-3-16,56,42,34,48,38,31,95,87,69,27.14,26.89,16,5,23,0.01
2013-3-17,37,31,27,34,27,-42,95,87,3,27.36,27.14,13,4,20,0.00
2013-3-18,30,27,25,28,23,-10,94,86,20,27.34,27.02,30,16,40,0.15
2013-3-19,41,34,27,34,20,4,96,62,21,27.16,26.97,25,10,37,0.06
2013-3-20,38,29,22,23,13,9,87,53,32,27.16,26.99,18,7,31,0.05
2013-3-21,24,19,14,18,10,5,85,69,50,27.07,26.98,13,6,23,0.02
2013-3-22,37,25,18,18,13,-31,77,61,8,27.20,27.05,15,6,25,0.00
2013-3-23,46,33,20,19,16,13,76,53,32,27.22,27.16,16,4,17,0.00
2013-3-24,32,27,23,24,19,14,87,73,51,27.18,26.76,15,6,26,0.01
2013-3-25,37,29,26,27,22,-44,90,80,3,26.93,26.71,16,6,24,0.05
2013-3-26,38,31,27,28,25,22,92,80,57,27.26,26.94,11,5,19,0.03
2013-3-27,39,30,26,27,24,20,90,76,53,27.34,27.24,13,6,19,0.06
2013-3-28,38,32,27,33,24,-37,91,77,3,27.45,27.31,14,6,19,0.03
2013-3-29,49,38,32,27,23,20,73,57,35,27.46,27.38,12,4,16,0.00
2013-3-30,56,39,22,26,18,-48,83,49,1,27.45,27.30,5,1,11,0.00
2013-3-31,44,41,36,43,33,0,96,78,43,27.30,27.01,11,4,19,0.22
2013-4-1,43,36,27,40,32,14,96,86,58,27.20,27.00,16,7,25,0.11
2013-4-2,39,29,20,19,11,6,66,49,25,27.36,27.19,14,6,22,0.00
2013-4-3,41,29,20,15,10,4,66,46,24,27.55,27.36,23,6,27,0.00
2013-4-4,46,30,14,20,11,2,77,47,24,27.54,27.23,17,5,22,0.00
2013-4-5,57,44,32,30,23,16,79,45,27,27.34,27.16,15,5,25,0.00
2013-4-6,57,40,20,22,14,8,82,40,17,27.47,27.34,14,5,21,0.00
2013-4-7,69,55,44,45,32,17,73,42,31,27.35,27.23,18,7,31,0.00
2013-4-8,72,59,44,44,41,-27,83,54,2,27.35,27.25,12,4,23,0.00
2013-4-9,78,67,57,54,48,3,70,52,8,27.41,27.27,13,6,21,0.00
2013-4-10,80,71,58,55,50,5,77,49,10,27.31,27.18,18,8,34,0.00
2013-4-11,79,64,47,54,49,-20,92,63,2,27.24,26.99,11,4,20,0.00
2013-4-12,64,56,41,60,47,1,97,76,9,27.10,26.91,20,8,26,0.60
2013-4-13,60,46,35,34,29,23,76,54,26,27.24,27.09,15,8,29,0.00
2013-4-14,66,50,30,36,30,23,83,50,27,27.38,27.24,9,3,16,0.00
2013-4-15,58,53,49,47,42,35,84,68,52,27.45,27.33,19,10,29,0.00
2013-4-16,78,63,52,56,50,47,96,66,36,27.50,27.38,14,7,36,0.52
2013-4-17,75,60,53,63,56,52,97,86,52,27.51,27.43,11,3,19,0.00
2013-4-18,76,64,55,59,54,51,94,73,47,27.46,27.21,17,9,30,0.00
2013-4-19,70,56,40,62,48,32,96,77,54,27.20,26.90,25,10,40,0.28
2013-4-20,48,38,29,32,22,-27,85,57,6,27.56,27.11,16,8,27,0.00
2013-4-21,56,39,21,25,18,-33,85,48,2,27.73,27.56,13,3,18,0.00
2013-4-22,54,43,32,29,22,16,68,45,24,27.69,27.55,21,8,27,0.00
2013-4-23,71,50,31,37,32,-29,89,57,3,27.55,27.31,11,3,18,0.00
2013-4-24,74,53,36,58,44,34,95,74,39,27.36,27.07,18,6,32,0.11
2013-4-25,57,42,30,34,29,22,94,66,26,27.55,27.36,17,5,23,0.00
2013-4-26,64,47,29,36,28,22,91,54,21,27.67,27.55,9,2,12,0.00
2013-4-27,67,52,31,37,31,25,79,49,27,27.63,27.48,17,5,23,0.00
2013-4-28,54,50,47,49,44,37,95,82,53,27.48,27.29,19,9,29,0.13
2013-4-29,59,51,46,53,48,-19,96,90,5,27.33,27.26,13,6,24,0.03
2013-4-30,63,53,47,55,49,46,97,87,62,27.50,27.33,19,8,24,0.00
2013-5-1,68,55,47,48,41,28,94,64,24,27.62,27.49,18,8,24,0.00
2013-5-2,68,57,41,40,34,26,80,46,23,27.63,27.53,17,7,28,0.00
2013-5-3,66,54,40,44,39,33,84,58,41,27.56,27.49,16,8,28,0.00
2013-5-4,63,50,39,42,36,28,84,59,40,27.50,27.39,23,10,30,0.00
2013-5-5,63,50,41,38,32,24,74,54,24,27.42,27.34,22,8,27,0.00
2013-5-6,53,47,42,51,43,-24,96,87,5,27.37,27.29,17,6,28,0.00
2013-5-7,57,53,50,56,52,49,97,97,94,27.29,27.22,17,4,21,0.81
2013-5-8,69,55,47,52,47,41,97,78,36,27.27,27.18,12,4,17,0.75
2013-5-9,72,58,49,57,50,44,97,79,38,27.34,27.20,12,4,25,0.09
2013-5-10,78,61,51,58,51,0,96,73,42,27.34,27.17,13,4,27,0.17
2013-5-11,61,56,50,58,53,45,98,89,70,27.16,27.09,18,7,25,0.64
2013-5-12,50,44,38,44,31,21,95,63,33,27.29,27.10,19,7,28,0.07
2013-5-13,49,40,32,31,24,17,77,55,31,27.40,27.27,18,6,26,0.00
2013-5-14,62,44,24,35,28,22,90,58,29,27.41,27.25,11,3,17,0.00
2013-5-15,83,68,46,57,50,35,76,55,36,27.25,27.11,22,8,29,0.00
2013-5-16,71,63,55,62,54,11,97,77,10,27.31,27.16,20,6,26,0.67
2013-5-17,85,67,54,57,50,40,96,63,21,27.42,27.31,9,2,15,0.00
2013-5-18,74,61,53,59,53,46,97,76,54,27.45,27.40,11,4,18,0.03
2013-5-19,66,59,55,61,57,54,97,92,77,27.44,27.34,12,6,19,0.00
2013-5-20,92,72,56,63,59,55,97,69,33,27.39,27.30,7,2,14,0.00
2013-5-21,86,72,60,65,61,56,97,70,40,27.34,27.22,9,3,14,0.00
2013-5-22,83,68,59,66,58,53,97,72,45,27.27,27.20,22,6,29,0.46
2013-5-23,76,64,55,61,56,-11,97,77,5,27.21,27.12,13,6,30,0.06
2013-5-24,55,42,35,54,37,27,95,85,55,27.47,27.14,17,8,27,0.05
2013-5-25,58,44,29,34,30,26,90,61,35,27.51,27.45,14,6,26,0.00
2013-5-26,65,49,35,35,30,26,75,52,26,27.52,27.46,14,5,23,0.00
2013-5-27,63,51,33,47,38,30,90,64,39,27.54,27.44,6,2,12,0.00
2013-5-28,78,65,51,58,53,44,86,67,46,27.45,27.37,13,4,21,0.01
2013-5-29,82,71,55,60,55,52,92,59,38,27.47,27.40,15,5,25,0.00
2013-5-30,90,72,55,62,57,53,95,64,30,27.54,27.45,6,2,13,0.00
2013-5-31,88,71,54,63,57,51,91,65,34,27.49,27.36,6,2,14,0.00
2013-6-1,88,73,59,62,59,55,93,67,37,27.38,27.25,10,3,18,0.00
2013-6-2,76,69,62,63,59,57,89,72,57,27.25,27.18,19,6,25,0.02
2013-6-3,70,60,50,65,56,47,95,85,64,27.33,27.20,11,3,16,0.04
2013-6-4,78,58,38,49,42,36,94,63,27,27.44,27.32,8,2,15,0.00
2013-6-5,77,62,45,57,50,41,88,67,45,27.44,27.31,14,3,17,0.00
2013-6-6,63,60,58,60,57,55,97,91,79,27.32,27.14,13,6,20,0.22
2013-6-7,67,61,56,65,58,-18,97,93,4,27.15,27.05,9,2,16,0.40
2013-6-8,76,61,52,60,54,51,97,82,50,27.43,27.15,9,3,13,0.00
2013-6-9,77,65,51,63,58,50,95,79,55,27.48,27.39,11,3,16,0.00
2013-6-10,75,66,61,70,62,57,97,87,63,27.40,27.16,10,4,24,0.17
2013-6-11,64,61,60,62,58,56,96,92,86,27.22,27.15,13,7,20,0.03
2013-6-12,82,76,70,67,65,61,89,69,51,27.26,27.15,9,5,20,0.00
2013-6-13,71,62,56,68,60,-24,97,93,3,27.17,26.93,18,8,29,1.23
2013-6-14,73,61,53,54,50,-16,94,71,4,27.35,27.08,10,4,19,0.00
2013-6-15,77,65,49,56,48,39,96,61,27,27.43,27.34,10,2,14,0.00
2013-6-16,73,64,56,62,57,51,94,80,62,27.37,27.26,26,5,30,0.03
2013-6-17,83,69,61,71,62,58,96,81,47,27.32,27.26,10,4,19,0.15
2013-6-18,77,65,59,70,60,55,95,85,55,27.29,27.17,7,1,14,0.11
2013-6-19,81,67,55,60,56,49,93,70,35,27.45,27.25,7,2,13,0.02
2013-6-20,86,68,51,62,54,50,95,68,32,27.54,27.45,5,1,10,0.00
2013-6-21,87,71,53,64,58,50,96,68,29,27.57,27.52,6,2,26,0.00
2013-6-22,89,71,55,65,59,54,95,70,37,27.56,27.45,9,2,13,0.00
2013-6-23,89,74,56,66,60,54,94,66,34,27.52,27.42,7,2,10,0.00
2013-6-24,87,73,59,66,62,57,95,70,45,27.50,27.40,8,3,16,0.01
2013-6-25,85,74,62,65,63,61,96,71,48,27.43,27.30,15,5,21,0.02
2013-6-26,77,69,63,70,65,62,97,87,62,27.31,27.21,10,3,18,0.28
2013-6-27,68,65,62,65,63,60,97,95,84,27.20,27.03,14,3,19,0.99
2013-6-28,75,66,58,67,63,56,97,91,72,27.02,26.92,11,5,20,0.46
2013-6-29,79,68,58,60,58,56,94,72,45,27.07,26.92,11,5,19,0.00
2013-6-30,84,69,55,67,59,0,97,76,42,27.20,27.06,10,2,13,0.32
2013-7-1,80,68,63,71,64,62,97,87,59,27.30,27.17,6,2,14,0.10
2013-7-2,84,71,63,67,63,0,94,77,52,27.44,27.29,8,2,14,0.00
2013-7-3,86,72,63,71,64,60,94,77,50,27.54,27.43,8,3,14,0.13
2013-7-4,88,74,63,70,65,62,94,75,50,27.57,27.48,10,3,23,0.20
2013-7-5,85,73,65,74,66,62,97,79,52,27.53,27.47,9,3,16,0.46
2013-7-6,88,75,61,69,65,60,97,75,49,27.54,27.41,8,2,14,0.00
2013-7-7,86,70,63,71,64,62,97,83,52,27.47,27.37,25,4,36,0.47
2013-7-8,81,71,62,64,62,58,95,74,50,27.47,27.41,10,4,16,0.01
2013-7-9,79,70,65,69,66,63,97,86,68,27.46,27.37,13,5,25,0.40
2013-7-10,84,73,64,70,65,60,97,79,55,27.40,27.24,11,5,33,0.73
2013-7-11,77,67,61,63,61,58,96,82,58,27.32,27.23,8,2,12,0.12
2013-7-12,74,63,58,69,59,0,97,89,60,27.42,27.29,5,1,19,0.30
2013-7-13,79,68,60,70,64,59,97,87,60,27.58,27.41,10,3,14,0.00
2013-7-14,85,75,65,66,64,61,94,70,50,27.64,27.58,14,5,21,0.00
2013-7-15,92,78,61,68,60,-36,94,64,1,27.68,27.60,6,1,10,0.00
2013-7-16,92,75,63,74,67,62,97,79,43,27.66,27.59,8,2,14,0.10
2013-7-17,92,76,66,78,69,66,97,83,48,27.64,27.52,8,2,10,0.00
2013-7-18,94,80,65,73,68,63,96,71,42,27.55,27.42,6,2,10,0.00
2013-7-19,92,78,68,72,69,66,95,75,49,27.43,27.34,12,4,15,0.00
2013-7-20,81,71,66,72,67,62,96,86,67,27.31,27.22,11,5,25,0.17
2013-7-21,87,73,62,66,62,-32,95,73,1,27.33,27.27,9,1,12,0.00
2013-7-22,82,69,62,70,66,61,97,91,58,27.32,27.16,8,1,13,1.25
2013-7-23,66,66,65,65,65,64,97,97,97,27.14,27.11,2,1,5,0.01
2013-7-24,71,64,51,60,53,49,93,68,52,27.29,27.21,9,3,16,0.00
2013-7-25,78,63,48,56,51,46,96,69,37,27.41,27.27,9,1,14,0.00
2013-7-26,83,64,46,62,51,45,95,68,28,27.42,27.36,5,1,10,0.00
2013-7-27,72,63,54,62,58,52,94,84,70,27.36,27.23,10,2,20,0.00
2013-7-28,77,66,56,62,56,49,96,72,41,27.36,27.21,14,4,18,0.12
2013-7-29,72,61,45,53,50,44,95,69,43,27.51,27.36,10,3,15,0.00
2013-7-30,79,66,51,59,54,50,94,68,43,27.54,27.49,8,2,15,0.00
2013-7-31,79,64,52,62,52,-44,94,76,1,27.49,27.31,9,2,13,0.00
2013-8-1,78,67,59,66,61,57,97,84,57,27.31,27.22,10,3,21,0.00
2013-8-2,77,66,55,59,55,-31,96,71,2,27.34,27.25,10,4,18,0.00
2013-8-3,67,64,61,63,58,-8,97,85,5,27.32,27.28,13,3,22,0.17
2013-8-4,73,62,53,62,54,50,97,77,46,27.39,27.31,9,2,17,0.00
2013-8-5,78,62,47,58,48,0,95,67,31,27.43,27.35,6,1,10,0.00
2013-8-6,84,66,53,61,54,49,93,69,38,27.36,27.32,6,2,12,0.00
2013-8-7,83,68,62,71,64,60,97,87,53,27.39,27.34,8,2,12,0.62
2013-8-8,82,70,61,72,66,60,97,89,64,27.37,27.31,7,2,15,0.42
2013-8-9,77,69,67,72,67,66,97,94,73,27.37,27.27,12,4,21,1.58
2013-8-10,82,69,58,69,60,-25,97,78,2,27.45,27.36,7,2,13,0.00
2013-8-11,86,70,58,65,60,56,95,75,39,27.46,27.38,7,1,11,0.00
2013-8-12,84,70,62,64,62,59,94,76,46,27.41,27.29,8,2,15,0.00
2013-8-13,78,66,61,68,63,59,97,89,58,27.28,27.17,10,4,18,1.39
2013-8-16,79,69,46,57,52,44,93,57,37,27.50,27.45,5,2,10,0.00
2013-8-17,71,62,50,56,52,47,90,71,53,27.56,27.50,11,3,18,0.00
2013-8-18,76,62,55,65,57,54,96,86,61,27.55,27.48,6,2,11,0.20
2013-8-19,77,66,58,64,60,57,95,84,58,27.49,27.42,8,2,11,0.02
2013-8-20,84,67,54,64,57,53,96,74,37,27.55,27.45,5,1,10,0.00
2013-8-21,84,69,54,67,62,52,95,80,50,27.54,27.43,7,2,13,0.26
2013-8-22,80,69,60,65,62,58,96,80,58,27.47,27.36,12,4,16,0.00
2013-8-23,80,64,55,69,60,53,97,87,45,27.48,27.34,9,2,14,0.59
2013-8-24,83,62,49,62,54,48,96,79,31,27.64,27.48,5,1,10,0.00
2013-8-25,81,67,49,59,54,47,94,66,40,27.70,27.59,4,1,11,0.00
2013-8-26,83,69,54,61,58,52,95,71,46,27.61,27.41,10,4,18,0.00
2013-8-27,76,70,66,68,62,-19,91,81,2,27.41,27.33,9,5,17,0.05
2013-8-28,74,69,66,71,67,65,97,94,83,27.34,27.21,11,4,18,1.82
2013-8-29,86,71,62,73,65,60,97,83,47,27.40,27.26,4,1,8,0.00
2013-8-30,86,72,55,70,61,54,96,72,41,27.39,27.25,9,2,11,0.00
2013-8-31,83,72,64,67,64,62,96,77,54,27.26,27.20,10,3,16,0.00
2013-9-1,80,69,63,66,61,0,95,79,56,27.25,27.17,10,1,14,0.00
2013-9-2,82,70,62,66,62,-12,96,80,4,27.22,27.15,12,4,20,0.00
2013-9-3,74,64,55,60,56,52,95,77,49,27.35,27.19,11,4,18,0.00
2013-9-4,79,62,48,57,52,47,96,73,38,27.45,27.34,10,3,12,0.00
2013-9-5,75,62,51,58,53,45,90,73,49,27.50,27.41,12,4,20,0.00
2013-9-6,80,60,38,51,45,37,94,64,29,27.55,27.45,4,1,8,0.00
2013-9-7,80,62,43,56,48,41,94,65,33,27.45,27.32,7,2,11,0.00
2013-9-8,83,68,58,63,58,51,94,70,52,27.40,27.28,12,3,15,0.00
2013-9-9,80,64,56,64,56,0,95,76,56,27.47,27.40,5,1,11,0.00
2013-9-10,86,75,64,69,66,61,94,75,56,27.54,27.44,12,4,17,0.00
2013-9-11,88,75,66,71,67,65,97,78,51,27.55,27.42,10,2,14,0.00
2013-9-12,81,69,63,67,63,5,94,84,7,27.42,27.15,15,4,20,0.12
2013-9-13,68,55,44,59,51,42,96,85,45,27.30,27.14,10,4,20,0.11
2013-9-14,64,49,39,43,41,37,92,76,43,27.46,27.29,9,2,13,0.00
2013-9-15,72,54,36,54,45,34,94,76,49,27.48,27.40,10,2,19,0.00
2013-9-16,60,55,51,56,53,49,96,92,82,27.49,27.35,8,3,15,0.08
2013-9-17,65,55,45,48,44,36,87,68,46,27.67,27.56,6,2,12,0.00
2013-9-18,69,53,37,51,44,34,91,72,48,27.57,27.45,5,1,9,0.00
2013-9-19,75,61,52,59,52,0,95,75,56,27.46,27.38,5,1,9,0.00
2013-9-20,82,65,50,64,59,49,95,81,54,27.39,27.24,5,2,11,0.03
2013-9-21,70,60,51,62,57,50,97,92,74,27.23,27.03,12,3,17,0.65
2013-9-22,61,53,46,54,48,42,97,84,51,27.28,27.10,13,3,15,0.00
2013-9-23,58,48,35,44,40,33,94,74,52,27.39,27.28,8,2,12,0.00
2013-9-24,77,54,33,52,44,31,94,73,39,27.37,27.28,6,1,10,0.00
2013-9-25,75,54,40,53,45,38,94,76,41,27.29,27.21,7,2,11,0.00
2013-9-26,78,57,42,51,43,0,94,67,30,27.38,27.25,9,1,11,0.00
2013-9-27,76,56,41,52,46,39,93,71,39,27.50,27.38,7,2,12,0.00
2013-9-28,65,55,47,52,48,45,96,80,53,27.57,27.48,9,3,14,0.00
2013-9-29,75,55,45,52,47,42,92,76,44,27.47,27.35,9,2,12,0.00
2013-9-30,69,56,42,56,49,-18,94,80,3,27.37,27.32,6,1,8,0.00
2013-10-1,75,61,51,57,54,48,94,78,46,27.42,27.35,10,2,17,0.00
2013-10-2,77,63,55,59,56,53,94,78,49,27.44,27.39,10,3,15,0.00
2013-10-3,82,64,52,62,56,51,96,80,45,27.46,27.38,4,1,10,0.00
2013-10-4,81,68,60,63,60,58,94,76,49,27.46,27.39,9,2,16,0.00
2013-10-5,82,68,59,64,60,57,94,77,49,27.45,27.36,7,2,11,0.00
2013-10-6,82,68,57,61,56,53,94,69,37,27.36,27.18,12,4,20,0.00
2013-10-7,66,55,43,58,49,38,95,82,57,27.39,27.07,15,5,25,0.35
2013-10-8,71,52,39,46,40,37,93,67,32,27.55,27.39,7,2,13,0.00
2013-10-9,60,50,44,43,39,37,81,68,49,27.58,27.51,16,4,21,0.00
2013-10-10,63,51,46,53,45,38,96,81,53,27.50,27.36,6,1,11,0.15
2013-10-11,58,53,50,57,52,49,97,96,95,27.35,27.31,7,2,13,0.08
2013-10-12,64,57,54,62,55,-44,97,95,1,27.48,27.33,7,2,14,0.01
2013-10-13,61,55,52,54,52,51,97,92,76,27.56,27.46,8,3,14,0.01
2013-10-14,72,56,52,60,53,50,97,91,63,27.58,27.50,4,2,10,0.00
2013-10-15,68,58,52,54,51,48,96,80,60,27.52,27.33,8,3,17,0.00
2013-10-16,68,60,46,56,51,44,94,75,53,27.33,27.22,9,3,17,0.00
2013-10-17,64,56,44,62,54,43,97,95,87,27.22,27.01,15,4,24,0.34
2013-10-18,62,46,36,43,38,33,96,77,38,27.30,27.17,14,5,25,0.00
2013-10-19,56,43,31,45,38,29,94,85,58,27.27,27.07,14,4,26,0.09
2013-10-20,57,44,36,37,32,29,92,68,34,27.34,27.18,12,4,21,0.00
2013-10-21,67,48,30,42,32,0,89,58,27,27.35,27.19,10,2,18,0.00
2013-10-22,52,44,33,43,36,28,94,76,44,27.19,27.11,13,5,20,0.08
2013-10-23,40,35,32,38,32,29,94,91,82,27.16,26.98,10,2,14,0.29
2013-10-24,38,32,30,35,29,-18,94,90,9,27.36,27.15,15,6,25,0.12
2013-10-25,41,31,28,34,28,25,91,87,65,27.53,27.35,10,4,16,0.00
2013-10-26,51,36,27,26,23,19,85,62,31,27.48,27.17,20,7,25,0.00
2013-10-27,54,42,30,32,29,26,87,62,35,27.36,27.21,14,5,20,0.00
2013-10-28,66,44,28,39,30,25,93,65,27,27.53,27.35,6,1,12,0.00
2013-10-29,66,45,29,40,31,26,89,63,27,27.59,27.52,6,1,13,0.00
2013-10-30,61,51,39,53,45,32,95,82,69,27.52,27.42,8,2,10,0.00
2013-10-31,65,59,54,54,52,48,95,79,56,27.42,26.94,14,5,25,0.02
2013-11-1,66,55,46,58,45,38,97,72,45,27.02,26.81,21,7,44,0.20
2013-11-2,49,45,38,42,38,34,95,78,60,27.18,26.96,16,6,23,0.02
2013-11-3,54,38,25,37,29,18,95,74,26,27.63,27.19,12,4,19,0.00
2013-11-4,40,31,22,22,19,16,86,63,44,27.73,27.63,11,3,18,0.00
2013-11-5,52,38,30,29,24,19,84,58,39,27.73,27.60,5,2,13,0.00
2013-11-6,70,51,31,46,40,28,94,70,40,27.60,27.24,13,5,24,0.00
2013-11-7,59,41,32,51,37,21,96,84,61,27.34,27.18,12,6,23,0.35
2013-11-8,42,32,22,25,22,18,85,67,40,27.48,27.30,14,5,25,0.00
2013-11-9,59,41,22,27,18,-30,89,47,3,27.48,27.25,18,6,26,0.00
2013-11-10,45,40,30,31,26,22,75,58,41,27.47,27.23,18,9,39,0.00
2013-11-11,51,38,24,35,22,9,87,58,20,27.48,27.26,13,5,24,0.06
2013-11-12,38,26,21,35,21,15,93,82,64,27.59,27.25,15,6,20,0.03
2013-11-13,36,24,19,25,16,-29,85,73,9,27.64,27.53,13,6,20,0.02
2013-11-14,53,35,24,16,13,10,68,42,21,27.54,27.42,16,6,24,0.02
2013-11-15,51,44,38,38,20,10,90,43,24,27.47,27.40,10,4,21,0.06
2013-11-16,60,48,35,45,41,33,93,79,58,27.49,27.36,9,2,20,0.01
2013-11-17,60,54,43,56,49,40,96,83,68,27.36,27.01,21,7,37,0.17
2013-11-18,57,46,34,46,31,22,96,58,31,27.22,27.02,21,10,29,0.00
2013-11-19,33,28,21,24,20,16,84,72,63,27.54,27.23,13,4,27,0.00
2013-11-20,42,29,20,19,15,11,85,58,31,27.65,27.54,16,8,25,0.00
2013-11-21,53,39,27,35,29,16,80,67,48,27.64,27.51,7,1,17,0.00
2013-11-22,51,47,33,50,45,32,96,93,78,27.49,27.32,14,4,23,0.38
2013-11-23,34,26,14,31,22,8,94,82,62,27.42,27.29,14,6,29,0.00
2013-11-24,22,13,6,8,2,-53,81,66,3,27.61,27.41,13,6,28,0.00
2013-11-25,44,26,7,21,5,-1,75,44,18,27.60,27.41,11,4,19,0.00
2013-11-26,36,33,29,34,29,-34,95,89,4,27.40,27.02,10,3,19,0.88
2013-11-27,34,23,15,32,20,10,95,88,76,27.26,27.02,19,8,31,0.01
2013-11-28,25,20,14,18,14,8,83,77,69,27.56,27.27,14,5,26,0.00
2013-11-29,40,25,17,34,19,14,87,76,59,27.78,27.56,9,3,15,0.00
2013-11-30,29,22,17,22,17,14,86,80,71,27.75,27.44,7,2,16,0.00
2013-12-1,48,36,22,32,25,18,84,64,38,27.43,27.20,12,4,18,0.00
2013-12-2,54,40,32,36,32,28,89,71,50,27.19,27.07,5,1,9,0.00
2013-12-3,62,41,32,38,31,-44,90,73,2,27.19,27.08,6,1,10,0.00
2013-12-4,62,46,36,45,39,31,89,76,54,27.26,27.18,9,2,17,0.00
2013-12-5,64,54,41,56,50,38,97,87,69,27.24,27.19,12,3,19,0.61
2013-12-6,43,34,28,42,32,27,96,95,94,27.38,27.23,8,2,19,0.96
2013-12-7,28,23,16,26,20,13,94,90,86,27.66,27.38,0,0,0,0.00
2013-12-8,26,20,16,23,16,12,91,87,85,27.65,27.30,0,0,0,0.00
2013-12-9,38,32,26,37,30,24,96,92,84,27.31,27.22,14,6,24,0.28
2013-12-10,27,23,18,25,17,10,91,79,67,27.38,27.15,18,8,33,0.00
2013-12-11,35,22,16,21,11,-27,84,65,11,27.48,27.39,15,7,22,0.01
2013-12-12,24,16,12,14,3,-23,83,58,12,27.52,27.36,17,8,28,0.00
2013-12-13,37,25,16,18,8,0,58,50,35,27.44,27.34,23,8,30,0.00
2013-12-14,32,30,27,30,25,12,94,83,47,27.41,27.01,24,8,30,0.00
2013-12-15,37,27,21,36,23,-26,96,87,10,27.14,27.01,20,10,29,0.14
2013-12-16,29,23,19,27,20,16,92,87,83,30.04,27.14,12,5,22,0.00
2013-12-17,34,30,24,32,28,21,95,93,88,29.97,29.89,14,5,19,0.01
2013-12-18,26,23,20,22,19,16,89,84,76,30.12,29.96,18,8,23,0.00
2013-12-19,55,42,26,35,26,18,86,54,34,30.12,30.06,21,6,33,0.03
2013-12-20,55,50,45,49,36,19,94,61,33,30.08,29.97,14,7,21,0.01
2013-12-21,68,59,54,54,51,48,90,75,56,30.00,29.82,12,5,27,0.07
2013-12-22,67,56,53,55,50,46,96,81,63,30.02,29.77,30,8,33,0.22
2013-12-23,54,37,24,48,35,20,96,92,78,30.20,29.98,10,5,22,0.19
2013-12-24,26,18,7,20,11,-38,86,75,5,30.35,30.13,15,5,22,0.00
2013-12-25,34,20,6,24,10,1,80,67,51,30.35,30.14,12,3,16,0.00
2013-12-26,37,28,23,24,17,12,89,63,43,30.27,30.10,18,7,27,0.00
2013-12-27,43,32,22,17,14,-29,67,49,5,30.32,30.26,20,6,24,0.00
2013-12-28,52,41,33,24,19,15,49,42,32,30.26,30.07,13,6,23,0.00
2013-12-29,44,38,34,40,34,15,96,88,31,30.07,29.65,15,7,27,0.91
2013-12-30,34,24,19,33,22,16,95,90,87,30.09,29.85,12,5,27,0.02
2013-12-31,23,21,18,20,17,-19,89,83,15,30.22,30.02,21,7,26,0.00
2014-1-1,47,30,20,34,20,0,84,68,35,30.26,30.02,12,3,17,0.01
2014-1-2,36,24,8,24,19,2,87,79,54,30.02,29.63,13,3,24,0.00